Terminal Aerodrome Forecast
Issued by NWS Twin Cities, MN

Home | Current Version | Previous Version | Graphics & Text | Print | Product List | Glossary On
Versions: 1 2 3 4 5 6 7 8 9 10 11 12 13 14 15 16 17 18 19 20
000
FTUS43 KMPX 171012 AAA
TAFSTC
TAF AMD
KSTC 171012Z 1710/1806 36010KT 4SM -SHRA BR OVC007
     FM171400 32013G20KT 5SM -SHRA BR OVC009
     FM171800 32015G22KT P6SM OVC015
     FM172200 33011KT P6SM SCT020 SCT050
     FM180200 31006KT P6SM SCT050 SCT250=

USA.gov is the U.S. government's official web portal to all federal, state and local government web resources and services.